Time;durP1;ratioP1;P1;durP2;ratioP2;P2;SDS_P1;SDS_P2;PMS_P1;PMS_P2;Temp;Humidity;BMP_temperature;BMP_pressure;BME280_temperature;BME280_humidity;BME280_pressure;Samples;Min_cycle;Max_cycle;Signal;HPM_P1;HPM_P2
2022/11/08 00:03:34;;;;;;;;;;;5.60;99.90;;;;;;4976416;28;19930;-73
2022/11/08 00:14:32;;;;;;;;;;;5.50;99.90;;;;;;4988168;28;20339;-73
2022/11/08 00:16:58;;;;;;;;;;;5.60;99.90;;;;;;4988899;28;19926;-72
2022/11/08 00:19:30;;;;;;;;;;;5.50;99.90;;;;;;5003600;28;20027;-73
2022/11/08 00:22:02;;;;;;;;;;;5.40;99.90;;;;;;4985317;28;19926;-74
2022/11/08 00:24:36;;;;;;;;;;;5.40;99.90;;;;;;5006507;28;20317;-73
2022/11/08 00:27:12;;;;;;;;;;;5.40;99.90;;;;;;4988851;28;19933;-75
2022/11/08 00:29:39;;;;;;;;;;;5.40;99.90;;;;;;4981538;28;20451;-73
2022/11/08 00:32:13;;;;;;;;;;;5.40;99.90;;;;;;4993978;28;20446;-73
2022/11/08 00:34:40;;;;;;;;;;;5.40;99.90;;;;;;5006263;28;19980;-73
2022/11/08 00:37:11;;;;;;;;;;;5.40;99.90;;;;;;4990352;28;19929;-75
2022/11/08 00:39:43;;;;;;;;;;;5.40;99.90;;;;;;4988643;28;19925;-74
2022/11/08 00:42:14;;;;;;;;;;;5.30;99.90;;;;;;4991084;28;19930;-74
2022/11/08 00:44:46;;;;;;;;;;;5.30;99.90;;;;;;4994118;28;19989;-74
2022/11/08 00:47:18;;;;;;;;;;;5.30;99.90;;;;;;4976806;28;19929;-74
2022/11/08 00:49:49;;;;;;;;;;;5.30;99.90;;;;;;5008140;28;19984;-74
2022/11/08 00:52:21;;;;;;;;;;;5.30;99.90;;;;;;4994872;28;19944;-74
2022/11/08 00:54:47;;;;;;;;;;;5.30;99.90;;;;;;5011860;28;19940;-76
2022/11/08 00:57:19;;;;;;;;;;;5.30;99.90;;;;;;4992715;28;19925;-74
2022/11/08 00:59:50;;;;;;;;;;;5.30;99.90;;;;;;4994611;28;20434;-74
2022/11/08 01:02:22;;;;;;;;;;;5.30;99.90;;;;;;4980718;28;19968;-76
2022/11/08 01:04:53;;;;;;;;;;;5.20;99.90;;;;;;5010096;28;20019;-76
2022/11/08 01:07:20;;;;;;;;;;;5.20;99.90;;;;;;4992003;28;19976;-75
2022/11/08 01:09:51;;;;;;;;;;;5.20;99.90;;;;;;4992842;28;19929;-75
2022/11/08 01:12:23;;;;;;;;;;;5.20;99.90;;;;;;4978839;28;19936;-75
2022/11/08 01:14:54;;;;;;;;;;;5.20;99.90;;;;;;4978878;28;19934;-74
2022/11/08 01:17:26;;;;;;;;;;;5.10;99.90;;;;;;4992399;28;20515;-74
2022/11/08 01:19:53;;;;;;;;;;;5.10;99.90;;;;;;4976943;28;19945;-74
2022/11/08 01:22:19;;;;;;;;;;;5.00;99.90;;;;;;4977256;28;19926;-74
2022/11/08 01:24:51;;;;;;;;;;;5.00;99.90;;;;;;4999104;28;19925;-75
2022/11/08 01:27:22;;;;;;;;;;;5.00;99.90;;;;;;4992194;28;19930;-74
2022/11/08 01:29:54;;;;;;;;;;;4.90;99.90;;;;;;4993791;28;19934;-74
2022/11/08 01:32:25;;;;;;;;;;;4.90;99.90;;;;;;4994008;28;19972;-73
2022/11/08 01:34:57;;;;;;;;;;;4.90;99.90;;;;;;4993536;28;19929;-74
2022/11/08 01:37:28;;;;;;;;;;;4.90;99.90;;;;;;4992942;28;19925;-74
2022/11/08 01:40:00;;;;;;;;;;;4.80;99.90;;;;;;5009535;28;20001;-75
2022/11/08 01:42:32;;;;;;;;;;;4.80;99.90;;;;;;5004878;28;19980;-74
2022/11/08 01:45:05;;;;;;;;;;;4.70;99.90;;;;;;4974096;28;19929;-75
2022/11/08 01:47:32;;;;;;;;;;;4.70;99.90;;;;;;4992618;28;19979;-74
2022/11/08 01:50:11;;;;;;;;;;;4.70;99.90;;;;;;4983626;28;19934;-74
2022/11/08 01:52:51;;;;;;;;;;;4.70;99.90;;;;;;4976922;28;19934;-74
2022/11/08 01:55:33;;;;;;;;;;;4.70;99.90;;;;;;4992112;28;19941;-74
2022/11/08 01:58:07;;;;;;;;;;;4.60;99.90;;;;;;4986345;28;19925;-76
2022/11/08 02:00:39;;;;;;;;;;;4.60;99.90;;;;;;4991506;28;20292;-74
2022/11/08 02:03:13;;;;;;;;;;;4.60;99.90;;;;;;4975024;28;20343;-75
2022/11/08 02:05:39;;;;;;;;;;;4.50;99.90;;;;;;4989366;28;19933;-74
2022/11/08 02:08:29;;;;;;;;;;;4.50;99.90;;;;;;5009415;28;19925;-73
2022/11/08 02:11:02;;;;;;;;;;;4.50;99.90;;;;;;5006273;28;19926;-74
2022/11/08 02:13:35;;;;;;;;;;;4.40;99.90;;;;;;4992347;28;20543;-74
2022/11/08 02:16:11;;;;;;;;;;;4.30;99.90;;;;;;4989197;28;19929;-74
2022/11/08 02:18:44;;;;;;;;;;;4.30;99.90;;;;;;4987801;28;19995;-74
2022/11/08 02:21:18;;;;;;;;;;;4.30;99.90;;;;;;5009390;28;19925;-74
2022/11/08 02:23:50;;;;;;;;;;;4.30;99.90;;;;;;5009625;28;19976;-74
2022/11/08 02:26:24;;;;;;;;;;;4.30;99.90;;;;;;5004243;28;19925;-74
2022/11/08 02:28:57;;;;;;;;;;;4.30;99.90;;;;;;4992714;28;19980;-74
2022/11/08 02:31:28;;;;;;;;;;;4.30;99.90;;;;;;5003477;28;19926;-74
2022/11/08 02:34:00;;;;;;;;;;;4.30;99.90;;;;;;4973715;28;19929;-74
2022/11/08 02:36:31;;;;;;;;;;;4.30;99.90;;;;;;4974248;28;19925;-74
2022/11/08 02:39:03;;;;;;;;;;;4.30;99.90;;;;;;5001585;28;19932;-73
2022/11/08 02:41:29;;;;;;;;;;;4.30;99.90;;;;;;4975259;28;20347;-73
2022/11/08 02:44:01;;;;;;;;;;;4.30;99.90;;;;;;4992829;28;19976;-72
2022/11/08 02:46:32;;;;;;;;;;;4.20;99.90;;;;;;4990495;28;19929;-72
2022/11/08 02:49:04;;;;;;;;;;;4.20;99.90;;;;;;5008761;28;20472;-72
2022/11/08 02:51:36;;;;;;;;;;;4.20;99.90;;;;;;4976632;28;20388;-73
2022/11/08 02:54:03;;;;;;;;;;;4.20;99.90;;;;;;4970766;28;19933;-73
2022/11/08 02:56:30;;;;;;;;;;;4.10;99.90;;;;;;4991647;28;19987;-73
2022/11/08 02:58:56;;;;;;;;;;;4.10;99.90;;;;;;4993263;28;19940;-72
2022/11/08 03:01:28;;;;;;;;;;;4.10;99.90;;;;;;4992518;28;20404;-72
2022/11/08 03:04:00;;;;;;;;;;;4.10;99.90;;;;;;4974582;28;19929;-72
2022/11/08 03:06:31;;;;;;;;;;;4.10;99.90;;;;;;4974804;28;20332;-74
2022/11/08 03:09:03;;;;;;;;;;;4.00;99.90;;;;;;4992633;28;19926;-73
2022/11/08 03:11:35;;;;;;;;;;;4.00;99.90;;;;;;4992342;28;20364;-72
2022/11/08 03:14:02;;;;;;;;;;;4.00;99.90;;;;;;5009453;28;19991;-73
2022/11/08 03:16:33;;;;;;;;;;;4.00;99.90;;;;;;4992247;28;19933;-74
2022/11/08 03:19:05;;;;;;;;;;;4.00;99.90;;;;;;4986492;28;19977;-75
2022/11/08 03:21:36;;;;;;;;;;;4.00;99.90;;;;;;4992491;28;19926;-72
2022/11/08 03:24:09;;;;;;;;;;;4.00;99.90;;;;;;5009058;28;19929;-74
2022/11/08 03:26:35;;;;;;;;;;;4.00;99.90;;;;;;4990950;28;19956;-73
2022/11/08 03:29:07;;;;;;;;;;;3.90;99.90;;;;;;4974273;28;19934;-74
2022/11/08 03:31:38;;;;;;;;;;;4.00;99.90;;;;;;4991441;28;19933;-74
2022/11/08 03:34:10;;;;;;;;;;;4.00;99.90;;;;;;4986609;28;19996;-73
2022/11/08 03:36:42;;;;;;;;;;;3.90;99.90;;;;;;4990954;28;19980;-73
2022/11/08 03:39:13;;;;;;;;;;;4.00;99.90;;;;;;4988930;28;19934;-72
2022/11/08 03:41:45;;;;;;;;;;;3.90;99.90;;;;;;4974208;28;19936;-75
2022/11/08 03:44:11;;;;;;;;;;;3.90;99.90;;;;;;4972904;28;19926;-74
2022/11/08 03:46:43;;;;;;;;;;;3.90;99.90;;;;;;4990049;28;20011;-73
2022/11/08 03:49:14;;;;;;;;;;;3.80;99.90;;;;;;4985203;28;19979;-73
2022/11/08 03:51:41;;;;;;;;;;;3.80;99.90;;;;;;5008768;28;20059;-73
2022/11/08 03:54:13;;;;;;;;;;;3.80;99.90;;;;;;4972438;28;19933;-75
2022/11/08 03:56:44;;;;;;;;;;;3.70;99.90;;;;;;4973711;28;20011;-75
2022/11/08 03:59:16;;;;;;;;;;;3.70;99.90;;;;;;4974076;28;19929;-75
2022/11/08 04:01:47;;;;;;;;;;;3.70;99.90;;;;;;4974478;28;19929;-74
2022/11/08 04:04:14;;;;;;;;;;;3.70;99.90;;;;;;4990521;28;19929;-75
2022/11/08 04:06:46;;;;;;;;;;;3.70;99.90;;;;;;4986284;28;19929;-74
2022/11/08 04:09:17;;;;;;;;;;;3.70;99.90;;;;;;4986293;28;19926;-72
2022/11/08 04:23:15;;;;;;;;;;;3.60;99.90;;;;;;5012057;28;19933;-75
2022/11/08 04:25:52;;;;;;;;;;;3.60;99.90;;;;;;4994562;28;19934;-75
2022/11/08 04:28:19;;;;;;;;;;;3.50;99.90;;;;;;5012021;28;19926;-75
2022/11/08 04:30:54;;;;;;;;;;;3.50;99.90;;;;;;4992485;28;19926;-75
2022/11/08 04:33:21;;;;;;;;;;;3.50;99.90;;;;;;4992071;28;19980;-73
2022/11/08 04:35:48;;;;;;;;;;;3.50;99.90;;;;;;4993858;28;19933;-75
2022/11/08 04:38:19;;;;;;;;;;;3.50;99.90;;;;;;4993725;28;19996;-75
2022/11/08 04:40:46;;;;;;;;;;;3.40;99.90;;;;;;4992885;28;19929;-75
2022/11/08 04:43:13;;;;;;;;;;;3.40;99.90;;;;;;4977729;28;19929;-75
2022/11/08 04:45:39;;;;;;;;;;;3.40;99.90;;;;;;5000081;28;19933;-73
2022/11/08 04:48:06;;;;;;;;;;;3.40;99.90;;;;;;4989969;28;20287;-75
2022/11/08 04:50:33;;;;;;;;;;;3.30;99.90;;;;;;4993466;28;19980;-77
2022/11/08 04:53:00;;;;;;;;;;;3.30;99.90;;;;;;4977383;28;19933;-75
2022/11/08 04:55:31;;;;;;;;;;;3.20;99.90;;;;;;4985843;28;19959;-75
2022/11/08 04:57:58;;;;;;;;;;;3.20;99.90;;;;;;4989784;28;19995;-73
2022/11/08 05:00:45;;;;;;;;;;;3.20;99.90;;;;;;5001206;28;19932;-73
2022/11/08 05:03:51;;;;;;;;;;;3.20;99.90;;;;;;4999075;28;19928;-73
2022/11/08 05:06:56;;;;;;;;;;;3.10;99.90;;;;;;5008996;28;20279;-74
2022/11/08 05:09:59;;;;;;;;;;;3.20;99.90;;;;;;4997331;28;19924;-73
2022/11/08 05:13:04;;;;;;;;;;;3.20;99.90;;;;;;4998830;28;19978;-75
2022/11/08 05:16:14;;;;;;;;;;;3.20;99.90;;;;;;5009377;28;19921;-73
2022/11/08 05:23:22;;;;;;;;;;;3.10;99.90;;;;;;4994482;28;20286;-73
2022/11/08 05:26:10;;;;;;;;;;;3.00;99.90;;;;;;5010170;28;20404;-74
2022/11/08 05:29:15;;;;;;;;;;;3.00;99.90;;;;;;4995319;28;19921;-75
2022/11/08 05:32:20;;;;;;;;;;;3.00;99.90;;;;;;4995239;28;20351;-76
2022/11/08 05:35:25;;;;;;;;;;;3.00;99.90;;;;;;4998074;28;19971;-76
2022/11/08 05:38:29;;;;;;;;;;;3.00;99.90;;;;;;5009537;28;19971;-72
2022/11/08 05:41:33;;;;;;;;;;;2.90;99.90;;;;;;4997653;28;19921;-74
2022/11/08 05:44:36;;;;;;;;;;;2.90;99.90;;;;;;5009977;28;19972;-72
2022/11/08 05:47:22;;;;;;;;;;;2.90;99.90;;;;;;4974029;28;19921;-72
2022/11/08 05:49:49;;;;;;;;;;;2.90;99.90;;;;;;4986904;28;20027;-75
2022/11/08 05:52:20;;;;;;;;;;;2.90;99.90;;;;;;4972926;28;20331;-73
2022/11/08 05:54:52;;;;;;;;;;;2.90;99.90;;;;;;5010077;28;19979;-72
2022/11/08 05:57:19;;;;;;;;;;;2.90;99.90;;;;;;4990080;28;19930;-73
2022/11/08 05:59:45;;;;;;;;;;;2.90;99.90;;;;;;5008789;28;19972;-73
2022/11/08 06:02:12;;;;;;;;;;;2.90;99.90;;;;;;4991203;28;19929;-73
2022/11/08 06:04:39;;;;;;;;;;;2.90;99.90;;;;;;4991986;28;19983;-72
2022/11/08 06:07:10;;;;;;;;;;;2.90;99.90;;;;;;4991994;28;19979;-75
2022/11/08 06:09:42;;;;;;;;;;;2.90;99.90;;;;;;4989566;28;20376;-73
2022/11/08 06:12:13;;;;;;;;;;;2.90;99.90;;;;;;5010100;28;19926;-73
2022/11/08 06:14:45;;;;;;;;;;;2.80;99.90;;;;;;4985471;28;20125;-73
2022/11/08 06:17:11;;;;;;;;;;;2.80;99.90;;;;;;4989006;28;19933;-74
2022/11/08 06:19:38;;;;;;;;;;;2.80;99.90;;;;;;4994361;28;19936;-72
2022/11/08 06:22:05;;;;;;;;;;;2.80;99.90;;;;;;4970969;28;19979;-73
2022/11/08 06:24:36;;;;;;;;;;;2.70;99.90;;;;;;4992426;28;19933;-74
2022/11/08 06:27:08;;;;;;;;;;;2.80;99.90;;;;;;4976042;28;19929;-75
2022/11/08 06:29:41;;;;;;;;;;;2.80;99.90;;;;;;4991582;28;20376;-75
2022/11/08 06:32:12;;;;;;;;;;;2.80;99.90;;;;;;4978036;28;19932;-74
2022/11/08 06:34:47;;;;;;;;;;;2.80;99.90;;;;;;4975990;28;20344;-74
2022/11/08 06:37:19;;;;;;;;;;;2.70;99.90;;;;;;4989093;28;19926;-73
2022/11/08 06:39:46;;;;;;;;;;;2.70;99.90;;;;;;4996498;28;19951;-73
2022/11/08 06:42:17;;;;;;;;;;;2.70;99.90;;;;;;4978618;28;19930;-75
2022/11/08 06:44:44;;;;;;;;;;;2.80;99.90;;;;;;4997138;28;19929;-73
2022/11/08 06:47:10;;;;;;;;;;;2.80;99.90;;;;;;4991706;28;19926;-74
2022/11/08 06:49:37;;;;;;;;;;;2.80;99.90;;;;;;5011961;28;19929;-75
2022/11/08 06:52:08;;;;;;;;;;;2.70;99.90;;;;;;4991233;28;19988;-74
2022/11/08 06:54:40;;;;;;;;;;;3.10;99.90;;;;;;5012663;28;19929;-75
2022/11/08 06:57:06;;;;;;;;;;;3.20;99.90;;;;;;4977755;28;19925;-73
2022/11/08 06:59:39;;;;;;;;;;;3.10;99.90;;;;;;5008759;28;19980;-75
2022/11/08 07:02:05;;;;;;;;;;;3.10;99.90;;;;;;4990858;28;19926;-74
2022/11/08 07:04:32;;;;;;;;;;;3.00;99.90;;;;;;4994870;28;19936;-74
2022/11/08 07:06:58;;;;;;;;;;;2.90;99.90;;;;;;5012034;28;19929;-74
2022/11/08 07:09:25;;;;;;;;;;;2.90;99.90;;;;;;4978778;28;19932;-75
2022/11/08 07:11:56;;;;;;;;;;;2.90;99.90;;;;;;4994089;28;19929;-75
2022/11/08 07:14:28;;;;;;;;;;;2.80;99.90;;;;;;4997760;28;19925;-74
2022/11/08 07:16:54;;;;;;;;;;;2.80;99.90;;;;;;4974208;28;19992;-74
2022/11/08 07:19:26;;;;;;;;;;;2.70;99.90;;;;;;4990424;28;20290;-74
2022/11/08 07:21:52;;;;;;;;;;;2.80;99.90;;;;;;4991001;28;20548;-74
2022/11/08 07:24:24;;;;;;;;;;;2.70;99.90;;;;;;4992891;28;19930;-75
2022/11/08 07:26:56;;;;;;;;;;;2.70;99.90;;;;;;4983334;28;20304;-74
2022/11/08 07:29:22;;;;;;;;;;;2.70;99.90;;;;;;4993543;28;20344;-75
2022/11/08 07:31:49;;;;;;;;;;;2.70;99.90;;;;;;4990176;28;20622;-75
2022/11/08 07:34:20;;;;;;;;;;;2.80;99.90;;;;;;4994359;28;19929;-75
2022/11/08 07:36:52;;;;;;;;;;;2.90;99.90;;;;;;4993865;28;19984;-74
2022/11/08 07:39:23;;;;;;;;;;;2.90;99.90;;;;;;4994377;28;19932;-74
2022/11/08 07:41:55;;;;;;;;;;;3.00;99.90;;;;;;4994159;28;19926;-76
2022/11/08 07:44:28;;;;;;;;;;;3.10;99.90;;;;;;5005197;28;20415;-75
2022/11/08 07:47:00;;;;;;;;;;;3.10;99.90;;;;;;4976375;28;19933;-74
2022/11/08 07:49:31;;;;;;;;;;;3.20;99.90;;;;;;4978739;28;19930;-75
2022/11/08 07:52:03;;;;;;;;;;;3.30;99.90;;;;;;4978072;28;19976;-74
2022/11/08 07:54:34;;;;;;;;;;;3.40;99.90;;;;;;4982313;28;19929;-73
2022/11/08 07:57:06;;;;;;;;;;;3.50;99.90;;;;;;4998741;28;19925;-74
2022/11/08 07:59:37;;;;;;;;;;;3.60;99.90;;;;;;4976566;28;20343;-75
2022/11/08 08:02:09;;;;;;;;;;;3.70;99.90;;;;;;4995139;28;20458;-73
2022/11/08 08:04:41;;;;;;;;;;;3.80;99.90;;;;;;4997482;28;19925;-74
2022/11/08 08:07:12;;;;;;;;;;;4.00;99.90;;;;;;4981280;28;19933;-74
2022/11/08 08:09:44;;;;;;;;;;;4.10;99.90;;;;;;5011683;28;19925;-76
2022/11/08 08:12:15;;;;;;;;;;;4.20;99.90;;;;;;4997103;28;19933;-74
2022/11/08 08:14:47;;;;;;;;;;;4.20;99.90;;;;;;4990821;28;19934;-74
2022/11/08 08:17:19;;;;;;;;;;;4.40;99.90;;;;;;4981505;28;19926;-74
2022/11/08 08:19:45;;;;;;;;;;;4.40;99.90;;;;;;4997754;28;19925;-75
2022/11/08 08:22:17;;;;;;;;;;;4.50;99.90;;;;;;4997884;28;19925;-74
2022/11/08 08:24:48;;;;;;;;;;;4.60;99.90;;;;;;5015305;28;19929;-74
2022/11/08 08:27:20;;;;;;;;;;;4.70;99.90;;;;;;4981963;28;19929;-74
2022/11/08 08:29:52;;;;;;;;;;;4.70;99.90;;;;;;4982193;28;19976;-75
2022/11/08 08:32:23;;;;;;;;;;;4.80;99.90;;;;;;4997846;28;20363;-75
2022/11/08 08:34:50;;;;;;;;;;;4.80;99.90;;;;;;4986142;28;19979;-75
2022/11/08 08:37:21;;;;;;;;;;;4.90;99.90;;;;;;4971764;28;19960;-72
2022/11/08 08:39:53;;;;;;;;;;;4.90;99.90;;;;;;4997270;28;19925;-74
2022/11/08 08:42:19;;;;;;;;;;;5.00;99.90;;;;;;4994492;28;19972;-73
2022/11/08 08:44:51;;;;;;;;;;;5.10;99.90;;;;;;4999048;28;19941;-73
2022/11/08 08:47:23;;;;;;;;;;;5.20;99.90;;;;;;5011985;28;20411;-73
2022/11/08 08:49:54;;;;;;;;;;;5.30;99.90;;;;;;4983593;28;20312;-73
2022/11/08 08:52:26;;;;;;;;;;;5.40;99.90;;;;;;4999179;28;19926;-73
2022/11/08 08:54:57;;;;;;;;;;;5.50;99.90;;;;;;4999240;28;19929;-73
2022/11/08 08:57:29;;;;;;;;;;;5.60;99.90;;;;;;4997719;28;20308;-73
2022/11/08 09:00:01;;;;;;;;;;;5.60;99.90;;;;;;4998082;28;19925;-72
2022/11/08 09:02:32;;;;;;;;;;;5.70;99.90;;;;;;4998259;28;19925;-72
2022/11/08 09:05:04;;;;;;;;;;;5.70;99.90;;;;;;4978911;28;19926;-72
2022/11/08 09:07:35;;;;;;;;;;;5.80;99.90;;;;;;4978473;28;20297;-73
2022/11/08 09:10:08;;;;;;;;;;;5.90;99.90;;;;;;4994775;28;19941;-73
2022/11/08 09:12:39;;;;;;;;;;;5.90;99.90;;;;;;4978736;28;20343;-73
2022/11/08 09:15:11;;;;;;;;;;;6.00;99.90;;;;;;5001973;28;19972;-74
2022/11/08 09:17:42;;;;;;;;;;;6.00;99.90;;;;;;4974016;28;20387;-75
2022/11/08 09:20:14;;;;;;;;;;;6.10;99.90;;;;;;4998105;28;19933;-74
2022/11/08 09:22:41;;;;;;;;;;;6.10;99.90;;;;;;4997205;28;19988;-75
2022/11/08 09:25:13;;;;;;;;;;;6.20;99.90;;;;;;4997960;28;20066;-73
2022/11/08 09:27:44;;;;;;;;;;;6.30;99.90;;;;;;4996718;28;20548;-73
2022/11/08 09:30:16;;;;;;;;;;;6.40;99.90;;;;;;4997499;28;19960;-75
2022/11/08 09:32:47;;;;;;;;;;;6.50;99.90;;;;;;5001829;28;20379;-75
2022/11/08 09:35:19;;;;;;;;;;;6.50;99.90;;;;;;4998132;28;20332;-74
2022/11/08 09:37:46;;;;;;;;;;;6.60;99.90;;;;;;4996589;28;19925;-74
2022/11/08 09:40:14;;;;;;;;;;;6.60;99.90;;;;;;4991749;28;20277;-75
2022/11/08 09:42:59;;;;;;;;;;;6.70;99.90;;;;;;4995954;28;19976;-73
2022/11/08 09:45:29;;;;;;;;;;;6.70;99.90;;;;;;5001521;28;19929;-73
2022/11/08 09:48:03;;;;;;;;;;;6.90;99.90;;;;;;4986706;28;19968;-73
2022/11/08 09:50:34;;;;;;;;;;;6.90;99.90;;;;;;4975659;28;19934;-74
2022/11/08 09:53:18;;;;;;;;;;;7.00;99.90;;;;;;5012235;28;19940;-74
2022/11/08 09:55:58;;;;;;;;;;;7.00;99.90;;;;;;4995030;28;19933;-75
2022/11/08 09:58:39;;;;;;;;;;;7.20;99.90;;;;;;4997153;28;19925;-72
2022/11/08 10:01:12;;;;;;;;;;;7.20;99.90;;;;;;4997635;28;19926;-72
2022/11/08 10:03:46;;;;;;;;;;;7.30;99.90;;;;;;5008066;28;19925;-71
2022/11/08 10:06:40;;;;;;;;;;;7.30;99.90;;;;;;5016016;28;19959;-71
2022/11/08 10:09:12;;;;;;;;;;;7.40;99.90;;;;;;5029261;28;19937;-72
2022/11/08 10:11:54;;;;;;;;;;;7.40;99.90;;;;;;4996605;28;19925;-73
2022/11/08 10:14:40;;;;;;;;;;;7.50;99.90;;;;;;4987506;28;20390;-74
2022/11/08 10:17:32;;;;;;;;;;;7.60;99.90;;;;;;5008144;28;19933;-74
2022/11/08 10:20:03;;;;;;;;;;;7.60;99.90;;;;;;4996149;28;19972;-74
2022/11/08 10:22:35;;;;;;;;;;;7.60;99.90;;;;;;5009788;28;19971;-75
2022/11/08 10:25:15;;;;;;;;;;;7.60;99.90;;;;;;5012670;28;20319;-74
2022/11/08 10:27:42;;;;;;;;;;;7.60;99.90;;;;;;5012720;28;19929;-74
2022/11/08 10:30:18;;;;;;;;;;;7.70;99.90;;;;;;4995542;28;19925;-74
2022/11/08 10:32:52;;;;;;;;;;;7.80;99.90;;;;;;4972854;28;19980;-74
2022/11/08 10:35:41;;;;;;;;;;;7.90;99.90;;;;;;4995210;28;20351;-74
2022/11/08 10:38:23;;;;;;;;;;;8.10;99.90;;;;;;4994317;28;19929;-74
2022/11/08 10:40:56;;;;;;;;;;;8.20;99.90;;;;;;4978308;28;19980;-76
2022/11/08 10:43:48;;;;;;;;;;;8.30;99.90;;;;;;4995403;28;20363;-73
2022/11/08 10:46:29;;;;;;;;;;;8.50;99.90;;;;;;5011629;28;19933;-74
2022/11/08 10:49:31;;;;;;;;;;;8.60;99.90;;;;;;4966425;28;19984;-74
2022/11/08 10:52:11;;;;;;;;;;;8.70;99.90;;;;;;4959411;28;20306;-74
2022/11/08 10:54:46;;;;;;;;;;;9.00;99.90;;;;;;5003843;28;19933;-74
2022/11/08 10:57:30;;;;;;;;;;;9.10;99.90;;;;;;4963193;28;19937;-73
2022/11/08 11:00:13;;;;;;;;;;;9.20;99.90;;;;;;4993481;28;20448;-74
2022/11/08 11:02:41;;;;;;;;;;;9.40;99.90;;;;;;4991610;28;19979;-74
2022/11/08 11:05:20;;;;;;;;;;;9.60;99.90;;;;;;4990843;28;20323;-74
2022/11/08 11:08:02;;;;;;;;;;;9.80;99.90;;;;;;4974379;28;20296;-73
2022/11/08 11:10:36;;;;;;;;;;;10.00;99.90;;;;;;4980589;28;19926;-76
2022/11/08 11:13:19;;;;;;;;;;;10.20;99.90;;;;;;4991688;28;19929;-73
2022/11/08 11:15:54;;;;;;;;;;;10.30;99.90;;;;;;4987986;28;20341;-73
2022/11/08 11:18:24;;;;;;;;;;;10.30;99.90;;;;;;4997998;28;19972;-73
2022/11/08 11:20:57;;;;;;;;;;;10.30;99.90;;;;;;4988269;28;20020;-73
2022/11/08 11:23:36;;;;;;;;;;;10.20;99.90;;;;;;5007883;28;19972;-73
2022/11/08 11:26:16;;;;;;;;;;;10.20;99.90;;;;;;4974185;28;19988;-73
2022/11/08 11:29:04;;;;;;;;;;;10.20;99.90;;;;;;5008071;28;20304;-73
2022/11/08 11:31:37;;;;;;;;;;;10.30;99.90;;;;;;4988805;28;19929;-74
2022/11/08 11:34:16;;;;;;;;;;;10.20;99.90;;;;;;4991222;28;20273;-74
2022/11/08 11:36:50;;;;;;;;;;;10.20;99.90;;;;;;5008073;28;19933;-74
2022/11/08 11:39:26;;;;;;;;;;;10.20;99.90;;;;;;5008221;28;19929;-74
2022/11/08 11:42:11;;;;;;;;;;;10.20;99.90;;;;;;4973715;28;19926;-74
2022/11/08 11:44:46;;;;;;;;;;;10.20;99.90;;;;;;4990075;28;19925;-74
2022/11/08 11:47:27;;;;;;;;;;;10.30;99.90;;;;;;4988508;28;20470;-73
2022/11/08 11:50:01;;;;;;;;;;;10.40;99.90;;;;;;5002159;28;19983;-73
2022/11/08 11:52:33;;;;;;;;;;;10.60;99.90;;;;;;4987513;28;19992;-74
2022/11/08 11:55:05;;;;;;;;;;;10.70;99.90;;;;;;4972226;28;20332;-74
2022/11/08 11:57:47;;;;;;;;;;;10.80;99.90;;;;;;4972913;28;19934;-74
2022/11/08 12:00:19;;;;;;;;;;;10.90;99.90;;;;;;4988490;28;19934;-74
2022/11/08 12:02:51;;;;;;;;;;;11.00;99.90;;;;;;5006196;28;19987;-74
2022/11/08 12:05:40;;;;;;;;;;;11.10;99.90;;;;;;4991366;28;20416;-73
2022/11/08 12:08:17;;;;;;;;;;;11.20;99.90;;;;;;4986672;28;19930;-74
2022/11/08 12:10:58;;;;;;;;;;;11.30;99.90;;;;;;4988826;28;19941;-73
2022/11/08 12:13:53;;;;;;;;;;;11.40;99.90;;;;;;4984114;28;20374;-73
2022/11/08 12:16:27;;;;;;;;;;;11.50;99.90;;;;;;4963988;28;19926;-73
2022/11/08 12:19:13;;;;;;;;;;;11.60;99.90;;;;;;4980429;28;19984;-73
2022/11/08 12:21:58;;;;;;;;;;;11.70;99.90;;;;;;4985635;28;19926;-76
2022/11/08 12:24:53;;;;;;;;;;;11.70;99.90;;;;;;4985054;28;19984;-74
2022/11/08 12:27:39;;;;;;;;;;;11.80;99.90;;;;;;4977427;28;19930;-74
2022/11/08 12:30:13;;;;;;;;;;;11.90;99.90;;;;;;4970045;28;20277;-75
2022/11/08 12:33:04;;;;;;;;;;;12.00;99.90;;;;;;4971987;28;19933;-73
2022/11/08 12:35:41;;;;;;;;;;;12.10;99.90;;;;;;4987302;28;19930;-73
2022/11/08 12:38:16;;;;;;;;;;;12.40;99.90;;;;;;4989149;28;19930;-75
2022/11/08 12:41:06;;;;;;;;;;;12.60;99.90;;;;;;4988226;28;19926;-77
2022/11/08 12:44:00;;;;;;;;;;;12.80;99.90;;;;;;4975006;28;19979;-73
2022/11/08 12:46:36;;;;;;;;;;;13.10;99.90;;;;;;4992508;28;19925;-73
2022/11/08 12:49:26;;;;;;;;;;;13.30;99.90;;;;;;5009800;28;20545;-73
2022/11/08 12:52:15;;;;;;;;;;;13.40;99.90;;;;;;4990939;28;19991;-73
2022/11/08 12:54:52;;;;;;;;;;;13.60;99.90;;;;;;5004162;28;19926;-75
2022/11/08 12:57:27;;;;;;;;;;;13.70;99.90;;;;;;5010322;28;20342;-74
2022/11/08 13:00:07;;;;;;;;;;;13.90;99.90;;;;;;4987122;28;19937;-73
2022/11/08 13:02:40;;;;;;;;;;;14.00;99.90;;;;;;5005576;28;19934;-73
2022/11/08 13:05:16;;;;;;;;;;;14.10;99.90;;;;;;4975697;28;20027;-73
2022/11/08 13:07:58;;;;;;;;;;;14.20;99.90;;;;;;4990246;28;19948;-73
2022/11/08 13:10:33;;;;;;;;;;;14.40;99.90;;;;;;4992785;28;19934;-73
2022/11/08 13:13:32;;;;;;;;;;;14.50;99.90;;;;;;4991139;28;20007;-73
2022/11/08 13:16:09;;;;;;;;;;;14.60;99.90;;;;;;5008320;28;19925;-74
2022/11/08 13:18:44;;;;;;;;;;;14.70;99.90;;;;;;4977325;28;20469;-73
2022/11/08 13:21:25;;;;;;;;;;;14.60;99.90;;;;;;4972449;28;19932;-73
2022/11/08 13:24:05;;;;;;;;;;;14.50;99.90;;;;;;5009298;28;20008;-74
2022/11/08 13:26:41;;;;;;;;;;;14.40;99.90;;;;;;5008880;28;19965;-75
2022/11/08 13:29:15;;;;;;;;;;;14.30;99.90;;;;;;4971152;28;20017;-73
2022/11/08 13:31:51;;;;;;;;;;;14.20;99.90;;;;;;5009218;28;19956;-74
2022/11/08 13:34:41;;;;;;;;;;;14.00;99.90;;;;;;5008674;28;19925;-74
2022/11/08 13:37:19;;;;;;;;;;;13.90;99.90;;;;;;4974762;28;19929;-74
2022/11/08 13:40:00;;;;;;;;;;;13.80;99.90;;;;;;4991254;28;19933;-75
2022/11/08 13:42:31;;;;;;;;;;;13.80;99.90;;;;;;5005840;28;19929;-73
2022/11/08 13:45:15;;;;;;;;;;;13.70;99.90;;;;;;4964924;28;19933;-74
2022/11/08 13:47:42;;;;;;;;;;;13.70;99.90;;;;;;4983995;28;19929;-73
2022/11/08 13:50:27;;;;;;;;;;;13.60;99.90;;;;;;4971940;28;19992;-74
2022/11/08 13:53:17;;;;;;;;;;;13.50;99.90;;;;;;5004306;28;19960;-73
2022/11/08 13:55:50;;;;;;;;;;;13.50;99.90;;;;;;4989572;28;19929;-75
2022/11/08 13:58:26;;;;;;;;;;;13.40;99.90;;;;;;4988588;28;19929;-73
2022/11/08 14:00:58;;;;;;;;;;;13.30;99.90;;;;;;4975224;28;19933;-74
2022/11/08 14:03:31;;;;;;;;;;;13.30;99.90;;;;;;4987569;28;19941;-73
2022/11/08 14:06:04;;;;;;;;;;;13.30;99.90;;;;;;4982024;28;19926;-74
2022/11/08 14:08:36;;;;;;;;;;;13.40;99.90;;;;;;4983787;28;19979;-75
2022/11/08 14:11:23;;;;;;;;;;;13.40;99.90;;;;;;5007006;28;19941;-74
2022/11/08 14:14:13;;;;;;;;;;;13.40;99.90;;;;;;4976654;28;19933;-75
2022/11/08 14:16:56;;;;;;;;;;;13.50;99.90;;;;;;5005004;28;19933;-73
2022/11/08 14:19:30;;;;;;;;;;;13.50;99.90;;;;;;4988415;28;19925;-73
2022/11/08 14:22:02;;;;;;;;;;;13.50;99.90;;;;;;4989412;28;19984;-74
2022/11/08 14:24:35;;;;;;;;;;;13.50;99.90;;;;;;4989498;28;19980;-74
2022/11/08 14:27:06;;;;;;;;;;;13.60;99.90;;;;;;5002939;28;19925;-74
2022/11/08 14:29:38;;;;;;;;;;;13.70;99.90;;;;;;4989154;28;19979;-73
2022/11/08 14:32:15;;;;;;;;;;;13.70;99.90;;;;;;5003946;28;19936;-74
2022/11/08 14:34:46;;;;;;;;;;;13.80;99.90;;;;;;5005124;28;19933;-74
2022/11/08 14:37:23;;;;;;;;;;;13.70;99.90;;;;;;4971686;28;20381;-75
2022/11/08 14:39:55;;;;;;;;;;;13.70;99.90;;;;;;4988980;28;19982;-75
2022/11/08 14:42:23;;;;;;;;;;;13.60;99.90;;;;;;5005235;28;19934;-75
2022/11/08 14:44:55;;;;;;;;;;;13.60;99.90;;;;;;4983158;28;19930;-75
2022/11/08 14:47:29;;;;;;;;;;;13.50;99.90;;;;;;5005097;28;19933;-73
2022/11/08 14:50:00;;;;;;;;;;;13.50;99.90;;;;;;4988199;28;20052;-75
2022/11/08 14:52:32;;;;;;;;;;;13.40;99.90;;;;;;4972450;28;19926;-76
2022/11/08 14:55:05;;;;;;;;;;;13.40;99.90;;;;;;4992555;28;19929;-74
2022/11/08 14:57:37;;;;;;;;;;;13.30;99.90;;;;;;4974030;28;19982;-74
2022/11/08 15:00:12;;;;;;;;;;;13.20;99.90;;;;;;4994003;28;19925;-72
2022/11/08 15:02:45;;;;;;;;;;;13.10;99.90;;;;;;5009075;28;19987;-75
2022/11/08 15:05:24;;;;;;;;;;;12.80;99.90;;;;;;4991035;28;19929;-73
2022/11/08 15:08:00;;;;;;;;;;;12.60;99.90;;;;;;4975780;28;20418;-72
2022/11/08 15:10:27;;;;;;;;;;;12.30;99.90;;;;;;4992799;28;19925;-72
2022/11/08 15:12:54;;;;;;;;;;;12.00;99.90;;;;;;4973353;28;19929;-73
2022/11/08 15:15:31;;;;;;;;;;;11.90;99.90;;;;;;5006228;28;19930;-74
2022/11/08 15:18:07;;;;;;;;;;;11.70;99.90;;;;;;4981320;28;19932;-74
2022/11/08 15:20:40;;;;;;;;;;;11.50;99.90;;;;;;5004936;28;19934;-73
2022/11/08 15:23:24;;;;;;;;;;;11.40;99.90;;;;;;4989668;28;19925;-72
2022/11/08 15:25:55;;;;;;;;;;;11.30;99.90;;;;;;4971757;28;20388;-73
2022/11/08 15:28:24;;;;;;;;;;;11.10;99.90;;;;;;4984089;28;19925;-73
2022/11/08 15:30:58;;;;;;;;;;;11.00;99.90;;;;;;4986673;28;19925;-73
2022/11/08 15:33:32;;;;;;;;;;;10.90;99.90;;;;;;5005527;28;20392;-74
2022/11/08 15:36:14;;;;;;;;;;;10.80;99.90;;;;;;4984931;28;19960;-71